createdAt,value
2019-01-12T00:00:15.059Z,19.47
2019-01-12T00:02:43.894Z,18.73
2019-01-12T00:05:12.617Z,20.67
2019-01-12T00:07:41.446Z,15.30
2019-01-12T00:10:10.233Z,15.03
2019-01-12T00:12:39.011Z,16.30
2019-01-12T00:15:07.954Z,16.07
2019-01-12T00:17:36.804Z,20.77
2019-01-12T00:20:07.410Z,18.17
2019-01-12T00:22:36.126Z,15.67
2019-01-12T00:25:06.992Z,15.63
2019-01-12T00:27:35.709Z,15.80
2019-01-12T00:30:10.668Z,11.27
2019-01-12T00:32:39.436Z,17.50
2019-01-12T00:35:08.307Z,18.30
2019-01-12T00:37:37.009Z,21.77
2019-01-12T00:40:08.373Z,20.27
2019-01-12T00:42:37.141Z,19.57
2019-01-12T00:45:08.976Z,19.30
2019-01-12T00:47:37.692Z,19.63
2019-01-12T00:50:10.019Z,19.17
2019-01-12T00:52:38.803Z,19.83
2019-01-12T00:55:07.859Z,18.50
2019-01-12T00:57:36.639Z,22.07
2019-01-12T01:00:08.741Z,20.83
2019-01-12T01:02:37.531Z,20.90
2019-01-12T01:05:07.174Z,18.47
2019-01-12T01:07:36.025Z,16.57
2019-01-12T01:10:10.551Z,17.10
2019-01-12T01:12:39.317Z,16.77
2019-01-12T01:15:09.993Z,16.10
2019-01-12T01:17:38.894Z,22.50
2019-01-12T01:20:10.144Z,16.60
2019-01-12T01:22:38.933Z,17.00
2019-01-12T01:25:09.493Z,16.70
2019-01-12T01:27:38.633Z,21.90
2019-01-12T01:30:15.791Z,14.73
2019-01-12T01:32:44.606Z,14.80
2019-01-12T01:35:13.521Z,14.13
2019-01-12T01:37:42.231Z,14.80
2019-01-12T01:40:16.131Z,19.37
2019-01-12T01:42:44.997Z,23.13
2019-01-12T01:45:15.534Z,13.33
2019-01-12T01:47:44.386Z,16.03
2019-01-12T01:50:14.318Z,13.30
2019-01-12T01:52:43.166Z,13.17
2019-01-12T01:55:12.424Z,12.93
2019-01-12T01:57:41.305Z,12.97
2019-01-12T02:00:15.303Z,13.33
2019-01-12T02:02:44.173Z,15.00
2019-01-12T02:05:13.142Z,13.53
2019-01-12T02:07:41.907Z,15.73
2019-01-12T02:10:16.094Z,15.60
2019-01-12T02:12:44.880Z,15.27
2019-01-12T02:15:15.641Z,14.10
2019-01-12T02:17:44.354Z,14.77
2019-01-12T02:20:14.012Z,14.77
2019-01-12T02:22:42.702Z,13.57
2019-01-12T02:25:11.853Z,13.03
2019-01-12T02:27:40.622Z,17.03
2019-01-12T02:30:20.771Z,14.07
2019-01-12T02:32:49.453Z,11.37
2019-01-12T02:35:18.172Z,15.43
2019-01-12T02:37:46.897Z,16.83
2019-01-12T02:40:15.685Z,16.63
2019-01-12T02:42:44.391Z,19.10
2019-01-12T02:45:13.621Z,22.60
2019-01-12T02:47:42.457Z,21.40
2019-01-12T02:50:12.608Z,25.67
2019-01-12T02:52:41.314Z,26.03
2019-01-12T02:55:10.330Z,23.47
2019-01-12T02:57:39.105Z,28.27
2019-01-12T03:00:13.573Z,29.53
2019-01-12T03:02:42.425Z,25.17
2019-01-12T03:05:11.256Z,28.30
2019-01-12T03:07:39.982Z,28.27
2019-01-12T03:10:11.316Z,26.70
2019-01-12T03:12:40.040Z,30.33
2019-01-12T03:15:11.787Z,27.67
2019-01-12T03:17:40.641Z,25.50
2019-01-12T03:20:12.295Z,28.00
2019-01-12T03:22:41.011Z,26.70
2019-01-12T03:25:17.164Z,29.27
2019-01-12T03:27:40.412Z,28.97
2019-01-12T03:30:14.219Z,33.97
2019-01-12T03:32:43.060Z,36.30
2019-01-12T03:35:11.910Z,36.47
2019-01-12T03:37:40.698Z,37.83
2019-01-12T03:40:12.472Z,38.30
2019-01-12T03:42:41.252Z,32.83
2019-01-12T03:45:12.599Z,30.50
2019-01-12T03:47:41.370Z,31.93
2019-01-12T03:50:12.108Z,31.43
2019-01-12T03:52:40.917Z,30.27
2019-01-12T03:55:09.848Z,31.83
2019-01-12T03:57:38.645Z,35.33
2019-01-12T04:00:18.688Z,30.97
2019-01-12T04:02:47.543Z,27.10
2019-01-12T04:05:16.378Z,31.77
2019-01-12T04:07:45.254Z,28.30
2019-01-12T04:10:15.048Z,30.13
2019-01-12T04:12:43.853Z,28.87
2019-01-12T04:15:13.416Z,25.70
2019-01-12T04:17:42.181Z,23.37
2019-01-12T04:20:13.984Z,23.37
2019-01-12T04:22:42.662Z,21.57
2019-01-12T04:25:11.738Z,25.57
2019-01-12T04:27:40.496Z,21.57
2019-01-12T04:30:12.167Z,21.87
2019-01-12T04:32:40.938Z,24.23
2019-01-12T04:35:09.811Z,24.43
2019-01-12T04:37:38.633Z,21.63
2019-01-12T04:40:12.755Z,25.20
2019-01-12T04:42:41.585Z,21.40
2019-01-12T04:45:11.138Z,16.53
2019-01-12T04:47:39.965Z,19.07
2019-01-12T04:50:11.781Z,15.80
2019-01-12T04:52:40.573Z,16.67
2019-01-12T04:55:09.526Z,17.67
2019-01-12T04:57:38.209Z,16.73
2019-01-12T05:00:10.150Z,17.27
2019-01-12T05:02:38.902Z,14.60
2019-01-12T05:05:07.784Z,14.20
2019-01-12T05:07:36.474Z,16.10
2019-01-12T05:10:08.219Z,16.40
2019-01-12T05:12:37.010Z,15.07
2019-01-12T05:15:08.238Z,15.13
2019-01-12T05:17:36.966Z,19.70
2019-01-12T05:20:08.758Z,12.87
2019-01-12T05:22:37.546Z,13.60
2019-01-12T05:25:06.470Z,14.57
2019-01-12T05:27:35.186Z,17.10
2019-01-12T05:30:09.773Z,16.63
2019-01-12T05:32:38.621Z,15.47
2019-01-12T05:35:07.389Z,10.47
2019-01-12T05:37:36.191Z,13.83
2019-01-12T05:40:07.715Z,12.20
2019-01-12T05:42:36.878Z,19.53
2019-01-12T05:45:08.478Z,12.60
2019-01-12T05:47:37.237Z,10.77
2019-01-12T05:50:08.566Z,11.10
2019-01-12T05:52:37.277Z,11.80
2019-01-12T05:55:07.302Z,12.87
2019-01-12T05:57:36.013Z,13.10
2019-01-12T06:00:11.135Z,11.63
2019-01-12T06:02:39.857Z,11.10
2019-01-12T06:05:09.452Z,10.37
2019-01-12T06:07:38.280Z,9.33
2019-01-12T06:10:09.939Z,10.53
2019-01-12T06:12:39.163Z,11.23
2019-01-12T06:15:10.229Z,10.87
2019-01-12T06:17:39.163Z,10.27
2019-01-12T06:20:10.846Z,12.37
2019-01-12T06:22:39.702Z,13.83
2019-01-12T06:25:08.544Z,12.63
2019-01-12T06:27:37.475Z,12.77
2019-01-12T06:30:15.083Z,11.33
2019-01-12T06:32:44.001Z,12.17
2019-01-12T06:35:13.509Z,16.37
2019-01-12T06:37:42.670Z,14.67
2019-01-12T06:40:14.178Z,16.90
2019-01-12T06:42:43.055Z,17.17
2019-01-12T06:45:14.677Z,20.07
2019-01-12T06:47:43.721Z,17.50
2019-01-12T06:50:14.961Z,21.47
2019-01-12T06:52:43.847Z,18.90
2019-01-12T06:55:12.859Z,20.07
2019-01-12T06:57:41.871Z,20.00
2019-01-12T07:00:13.892Z,22.23
2019-01-12T07:02:42.641Z,24.77
2019-01-12T07:05:11.879Z,20.70
2019-01-12T07:07:41.210Z,24.37
2019-01-12T07:10:11.968Z,27.23
2019-01-12T07:12:40.773Z,21.37
2019-01-12T07:15:11.630Z,19.10
2019-01-12T07:17:40.390Z,25.53
2019-01-12T07:20:14.123Z,22.03
2019-01-12T07:22:43.256Z,26.00
2019-01-12T07:25:12.127Z,23.83
2019-01-12T07:27:41.151Z,24.90
2019-01-12T07:30:14.427Z,23.43
2019-01-12T07:32:43.335Z,23.43
2019-01-12T07:35:12.018Z,24.40
2019-01-12T07:37:40.769Z,26.83
2019-01-12T07:40:09.777Z,22.77
2019-01-12T07:42:38.549Z,24.17
2019-01-12T07:45:08.942Z,24.10
2019-01-12T07:47:37.750Z,24.03
2019-01-12T07:50:09.456Z,23.60
2019-01-12T07:52:40.330Z,24.73
2019-01-12T07:55:09.305Z,27.60
2019-01-12T07:57:38.050Z,26.33
2019-01-12T08:00:12.442Z,29.37
2019-01-12T08:02:41.335Z,26.83
2019-01-12T08:05:10.746Z,31.17
2019-01-12T08:07:39.546Z,31.30
2019-01-12T08:10:17.071Z,26.10
2019-01-12T08:12:45.949Z,31.37
2019-01-12T08:15:15.284Z,32.90
2019-01-12T08:17:44.158Z,34.13
2019-01-12T08:20:13.001Z,34.17
2019-01-12T08:22:41.722Z,31.63
2019-01-12T08:25:10.957Z,33.30
2019-01-12T08:27:39.703Z,32.10
2019-01-12T08:30:11.554Z,32.00
2019-01-12T08:32:40.357Z,32.63
2019-01-12T08:35:09.314Z,29.20
2019-01-12T08:37:38.728Z,35.60
2019-01-12T08:40:09.930Z,30.87
2019-01-12T08:42:38.659Z,29.87
2019-01-12T08:45:09.298Z,33.60
2019-01-12T08:47:38.133Z,32.80
2019-01-12T08:50:12.657Z,32.73
2019-01-12T08:52:41.493Z,28.53
2019-01-12T08:55:10.646Z,29.77
2019-01-12T08:57:39.358Z,34.93
2019-01-12T09:00:14.441Z,35.50
2019-01-12T09:02:43.177Z,34.90
2019-01-12T09:05:12.112Z,33.73
2019-01-12T09:07:41.131Z,34.87
2019-01-12T09:10:13.123Z,32.97
2019-01-12T09:12:41.979Z,34.60
2019-01-12T09:15:10.958Z,31.93
2019-01-12T09:17:39.725Z,29.73
2019-01-12T09:20:10.966Z,27.50
2019-01-12T09:22:39.764Z,31.10
2019-01-12T09:25:09.005Z,33.23
2019-01-12T09:27:38.695Z,32.80
2019-01-12T09:30:18.809Z,31.73
2019-01-12T09:32:47.943Z,33.53
2019-01-12T09:35:17.335Z,33.20
2019-01-12T09:37:46.289Z,33.80
2019-01-12T09:40:16.544Z,34.70
2019-01-12T09:42:46.043Z,33.07
2019-01-12T09:45:16.984Z,31.80
2019-01-12T09:47:46.147Z,30.17
2019-01-12T09:50:17.734Z,33.77
2019-01-12T09:52:46.587Z,35.37
2019-01-12T09:55:15.531Z,33.67
2019-01-12T09:57:44.330Z,34.73
2019-01-12T10:00:16.447Z,34.47
2019-01-12T10:02:45.258Z,32.57
2019-01-12T10:05:14.098Z,32.03
2019-01-12T10:07:43.173Z,30.37
2019-01-12T10:10:14.651Z,29.63
2019-01-12T10:12:43.626Z,32.87
2019-01-12T10:15:12.880Z,34.23
2019-01-12T10:17:41.621Z,32.43
2019-01-12T10:20:15.722Z,35.90
2019-01-12T10:22:44.723Z,31.97
2019-01-12T10:25:14.729Z,32.17
2019-01-12T10:27:43.765Z,32.67
2019-01-12T10:30:15.520Z,34.40
2019-01-12T10:32:44.361Z,35.10
2019-01-12T10:35:13.266Z,31.67
2019-01-12T10:37:42.106Z,33.63
2019-01-12T10:40:13.753Z,34.38
2019-01-12T10:42:42.653Z,29.47
2019-01-12T10:45:13.896Z,33.00
2019-01-12T10:47:43.404Z,34.93
2019-01-12T10:50:16.572Z,32.63
2019-01-12T10:52:45.767Z,33.40
2019-01-12T10:55:17.596Z,30.32
2019-01-12T10:57:47.616Z,34.27
2019-01-12T11:00:24.868Z,28.57
2019-01-12T11:02:53.920Z,30.83
2019-01-12T11:05:22.763Z,31.90
2019-01-12T11:07:51.698Z,31.80
2019-01-12T11:10:20.577Z,31.90
2019-01-12T11:12:49.513Z,29.60
2019-01-12T11:15:20.263Z,31.47
2019-01-12T11:17:49.362Z,29.37
2019-01-12T11:20:18.259Z,35.03
2019-01-12T11:22:47.416Z,37.20
2019-01-12T11:25:16.548Z,33.30
2019-01-12T11:27:45.433Z,38.33
2019-01-12T11:30:18.647Z,32.83
2019-01-12T11:32:48.327Z,37.83
2019-01-12T11:35:17.955Z,35.93
2019-01-12T11:37:47.745Z,36.57
2019-01-12T11:40:18.004Z,33.13
2019-01-12T11:42:47.368Z,33.10
2019-01-12T11:45:16.349Z,32.03
2019-01-12T11:47:45.461Z,34.90
2019-01-12T11:50:16.055Z,29.83
2019-01-12T11:52:45.641Z,30.03
2019-01-12T11:55:16.299Z,34.20
2019-01-12T11:57:45.266Z,30.95
2019-01-12T12:00:20.006Z,31.43
2019-01-12T12:02:48.890Z,33.17
2019-01-12T12:05:17.801Z,31.43
2019-01-12T12:07:49.133Z,26.07
2019-01-12T12:10:18.181Z,30.12
2019-01-12T12:12:47.195Z,31.33
2019-01-12T12:15:18.614Z,27.80
2019-01-12T12:17:47.570Z,26.87
2019-01-12T12:20:21.472Z,27.17
2019-01-12T12:22:50.373Z,31.30
2019-01-12T12:25:19.455Z,25.03
2019-01-12T12:27:48.679Z,25.93
2019-01-12T12:30:19.814Z,26.77
2019-01-12T12:32:48.625Z,27.50
2019-01-12T12:35:17.559Z,26.10
2019-01-12T12:37:46.446Z,28.60
2019-01-12T12:40:17.877Z,26.03
2019-01-12T12:42:46.729Z,25.13
2019-01-12T12:45:24.527Z,23.63
2019-01-12T12:47:53.506Z,20.30
2019-01-12T12:50:22.445Z,21.47
2019-01-12T12:52:51.138Z,22.07
2019-01-12T12:55:20.041Z,23.30
2019-01-12T12:57:48.906Z,26.07
2019-01-12T13:00:20.766Z,20.80
2019-01-12T13:02:49.689Z,21.60
2019-01-12T13:05:18.677Z,21.87
2019-01-12T13:07:47.614Z,20.27
2019-01-12T13:10:21.813Z,21.47
2019-01-12T13:12:50.796Z,22.43
2019-01-12T13:15:19.648Z,22.93
2019-01-12T13:17:48.446Z,17.97
2019-01-12T13:20:18.742Z,22.23
2019-01-12T13:22:51.240Z,19.90
2019-01-12T13:25:20.215Z,18.50
2019-01-12T13:27:49.162Z,15.63
2019-01-12T13:30:21.550Z,19.67
2019-01-12T13:32:50.470Z,17.47
2019-01-12T13:35:19.474Z,18.47
2019-01-12T13:37:48.778Z,18.97
2019-01-12T13:40:21.725Z,18.97
2019-01-12T13:42:50.794Z,20.87
2019-01-12T13:45:20.543Z,19.10
2019-01-12T13:47:49.401Z,21.43
2019-01-12T13:50:22.112Z,18.50
2019-01-12T13:52:51.122Z,17.60
2019-01-12T13:55:22.419Z,20.03
2019-01-12T13:57:51.527Z,19.27
2019-01-12T14:00:33.426Z,18.57
2019-01-12T14:03:02.488Z,19.00
2019-01-12T14:05:31.438Z,18.90
2019-01-12T14:08:00.569Z,17.63
2019-01-12T14:10:29.519Z,17.57
2019-01-12T14:12:58.392Z,15.90
2019-01-12T14:15:27.455Z,14.90
2019-01-12T14:17:56.395Z,17.77
2019-01-12T14:20:27.670Z,16.13
2019-01-12T14:22:56.718Z,14.10
2019-01-12T14:25:27.057Z,14.50
2019-01-12T14:27:55.971Z,13.20
2019-01-12T14:30:24.841Z,15.67
2019-01-12T14:32:53.632Z,13.47
2019-01-12T14:35:22.543Z,12.30
2019-01-12T14:37:51.322Z,9.13
2019-01-12T14:40:20.733Z,13.70
2019-01-12T14:42:49.505Z,10.03
2019-01-12T14:45:30.030Z,9.20
2019-01-12T14:47:58.870Z,8.80
2019-01-12T14:50:27.794Z,8.80
2019-01-12T14:52:56.546Z,9.83
2019-01-12T14:55:25.497Z,7.93
2019-01-12T14:58:01.585Z,8.87
2019-01-12T15:00:26.537Z,7.87
2019-01-12T15:02:59.108Z,7.10
2019-01-12T15:05:28.494Z,9.63
2019-01-12T15:07:57.341Z,8.73
2019-01-12T15:10:26.415Z,8.40
2019-01-12T15:12:55.166Z,8.50
2019-01-12T15:15:24.112Z,9.03
2019-01-12T15:17:52.920Z,8.63
2019-01-12T15:20:24.335Z,8.43
2019-01-12T15:22:53.166Z,9.23
2019-01-12T15:25:21.997Z,8.73
2019-01-12T15:27:52.119Z,9.67
2019-01-12T15:30:23.544Z,10.87
2019-01-12T15:32:53.547Z,9.87
2019-01-12T15:35:24.963Z,11.37
2019-01-12T15:37:53.766Z,11.17
2019-01-12T15:40:22.876Z,12.00
2019-01-12T15:42:51.765Z,12.43
2019-01-12T15:45:23.229Z,14.27
2019-01-12T15:47:52.099Z,12.13
2019-01-12T15:50:22.878Z,14.20
2019-01-12T15:52:52.069Z,14.23
2019-01-12T15:55:21.214Z,13.67
2019-01-12T15:57:50.442Z,12.30
2019-01-12T16:00:22.067Z,13.50
2019-01-12T16:02:50.938Z,14.33
2019-01-12T16:05:19.881Z,14.43
2019-01-12T16:07:51.653Z,14.03
2019-01-12T16:10:20.819Z,15.63
2019-01-12T16:12:49.927Z,14.60
2019-01-12T16:15:20.947Z,18.37
2019-01-12T16:17:50.118Z,15.87
2019-01-12T16:20:21.527Z,19.57
2019-01-12T16:22:50.416Z,17.43
2019-01-12T16:25:19.207Z,16.10
2019-01-12T16:27:48.117Z,19.17
2019-01-12T16:30:19.028Z,17.87
2019-01-12T16:32:48.133Z,16.33
2019-01-12T16:35:17.386Z,19.00
2019-01-12T16:37:46.269Z,13.27
2019-01-12T16:40:17.454Z,13.57
2019-01-12T16:42:46.346Z,11.87
2019-01-12T16:45:15.597Z,14.67
2019-01-12T16:47:44.527Z,12.37
2019-01-12T16:50:13.765Z,12.23
2019-01-12T16:52:42.715Z,12.67
2019-01-12T16:55:16.204Z,14.17
2019-01-12T16:57:45.005Z,16.87
2019-01-12T17:00:22.270Z,13.80
2019-01-12T17:02:51.242Z,14.83
2019-01-12T17:05:20.098Z,13.83
2019-01-12T17:07:49.031Z,13.10
2019-01-12T17:10:20.005Z,14.50
2019-01-12T17:12:48.952Z,14.13
2019-01-12T17:15:19.504Z,16.53
2019-01-12T17:17:48.267Z,18.03
2019-01-12T17:20:22.663Z,14.33
2019-01-12T17:22:53.119Z,17.27
2019-01-12T17:25:21.979Z,14.70
2019-01-12T17:27:54.241Z,12.10
2019-01-12T17:30:24.636Z,13.47
2019-01-12T17:32:53.454Z,11.90
2019-01-12T17:35:22.269Z,11.10
2019-01-12T17:37:51.102Z,10.30
2019-01-12T17:40:20.062Z,9.33
2019-01-12T17:42:49.016Z,10.87
2019-01-12T17:45:19.761Z,11.27
2019-01-12T17:47:48.728Z,9.87
2019-01-12T17:50:20.090Z,13.10
2019-01-12T17:52:49.095Z,13.37
2019-01-12T17:55:19.822Z,12.40
2019-01-12T17:57:48.682Z,13.57
2019-01-12T18:00:22.417Z,13.23
2019-01-12T18:02:51.146Z,14.00
2019-01-12T18:05:19.938Z,9.00
2019-01-12T18:07:48.723Z,8.70
2019-01-12T18:10:17.483Z,8.67
2019-01-12T18:12:46.270Z,8.70
2019-01-12T18:15:15.651Z,8.20
2019-01-12T18:17:44.448Z,6.03
2019-01-12T18:20:15.596Z,4.43
2019-01-12T18:22:44.570Z,8.17
2019-01-12T18:25:13.647Z,8.70
2019-01-12T18:27:42.353Z,7.43
2019-01-12T18:30:14.299Z,6.50
2019-01-12T18:32:43.954Z,8.73
2019-01-12T18:35:12.853Z,5.93
2019-01-12T18:37:41.980Z,7.53
2019-01-12T18:40:16.549Z,9.80
2019-01-12T18:42:45.436Z,7.13
2019-01-12T18:45:16.853Z,8.93
2019-01-12T18:47:45.951Z,8.37
2019-01-12T18:50:20.263Z,7.50
2019-01-12T18:52:49.134Z,8.67
2019-01-12T18:55:18.032Z,6.60
2019-01-12T18:57:46.783Z,7.17
2019-01-12T19:00:20.702Z,8.53
2019-01-12T19:02:50.171Z,7.20
2019-01-12T19:05:19.232Z,8.43
2019-01-12T19:07:48.272Z,8.60
2019-01-12T19:10:17.174Z,7.33
2019-01-12T19:12:45.987Z,9.73
2019-01-12T19:15:20.319Z,11.50
2019-01-12T19:17:49.239Z,16.07
2019-01-12T19:20:18.406Z,12.00
2019-01-12T19:22:47.429Z,14.27
2019-01-12T19:25:16.388Z,13.50
2019-01-12T19:27:45.266Z,11.90
2019-01-12T19:30:16.718Z,12.93
2019-01-12T19:32:45.646Z,14.87
2019-01-12T19:35:14.614Z,11.50
2019-01-12T19:37:43.517Z,13.73
2019-01-12T19:40:14.687Z,16.70
2019-01-12T19:42:43.589Z,12.93
2019-01-12T19:45:14.031Z,12.50
2019-01-12T19:47:42.883Z,19.57
2019-01-12T19:50:22.454Z,11.07
2019-01-12T19:52:51.336Z,16.10
2019-01-12T19:55:20.035Z,12.37
2019-01-12T19:57:48.800Z,11.87
2019-01-12T20:00:20.066Z,13.83
2019-01-12T20:02:48.996Z,13.20
2019-01-12T20:05:17.858Z,15.27
2019-01-12T20:07:46.777Z,13.80
2019-01-12T20:10:17.375Z,18.33
2019-01-12T20:12:46.204Z,16.70
2019-01-12T20:15:17.867Z,17.55
2019-01-12T20:17:46.726Z,18.10
2019-01-12T20:20:16.083Z,16.90
2019-01-12T20:22:44.917Z,18.23
2019-01-12T20:25:16.967Z,14.67
2019-01-12T20:27:45.644Z,16.00
2019-01-12T20:30:20.562Z,19.50
2019-01-12T20:33:07.130Z,16.43
2019-01-12T20:35:50.781Z,17.60
2019-01-12T20:38:22.559Z,15.53
2019-01-12T20:41:09.223Z,15.90
2019-01-12T20:43:49.621Z,18.30
2019-01-12T20:46:30.484Z,15.77
2019-01-12T20:49:02.325Z,18.23
2019-01-12T20:52:04.723Z,21.37
2019-01-12T20:55:00.693Z,19.40
2019-01-12T20:57:51.894Z,17.30
2019-01-12T21:00:35.959Z,15.90
2019-01-12T21:03:28.432Z,18.80
2019-01-12T21:06:02.861Z,17.83
2019-01-12T21:08:34.632Z,15.90
2019-01-12T21:11:09.217Z,15.93
2019-01-12T21:13:55.897Z,17.40
2019-01-12T21:16:29.912Z,10.00
2019-01-12T21:18:58.730Z,14.00
2019-01-12T21:21:27.972Z,13.37
2019-01-12T21:23:56.839Z,13.87
2019-01-12T21:26:25.662Z,14.63
2019-01-12T21:28:54.445Z,13.93
2019-01-12T21:31:23.354Z,13.17
2019-01-12T21:33:52.283Z,15.33
2019-01-12T21:36:21.020Z,19.60
2019-01-12T21:38:49.980Z,15.70
2019-01-12T21:41:18.852Z,14.47
2019-01-12T21:43:47.790Z,13.43
2019-01-12T21:46:16.925Z,16.60
2019-01-12T21:48:45.887Z,15.37
2019-01-12T21:51:16.825Z,15.00
2019-01-12T21:53:45.674Z,16.43
2019-01-12T21:56:14.450Z,15.23
2019-01-12T21:58:43.197Z,19.90
2019-01-12T22:01:11.976Z,16.63
2019-01-12T22:03:40.914Z,16.87
2019-01-12T22:06:09.725Z,20.50
2019-01-12T22:08:38.629Z,13.10
2019-01-12T22:11:07.367Z,17.27
2019-01-12T22:13:36.235Z,19.87
2019-01-12T22:16:05.083Z,18.47
2019-01-12T22:18:33.855Z,15.80
2019-01-12T22:21:03.011Z,22.00
2019-01-12T22:23:34.714Z,12.83
2019-01-12T22:26:03.558Z,13.73
2019-01-12T22:28:32.266Z,17.80
2019-01-12T22:31:01.089Z,16.70
2019-01-12T22:33:29.936Z,19.17
2019-01-12T22:35:58.729Z,18.57
2019-01-12T22:38:27.489Z,15.97
2019-01-12T22:40:56.221Z,16.77
2019-01-12T22:43:24.936Z,20.07
2019-01-12T22:45:53.745Z,19.10
2019-01-12T22:48:22.532Z,19.03
2019-01-12T22:50:51.267Z,20.30
2019-01-12T22:53:20.133Z,16.00
2019-01-12T22:55:48.992Z,21.63
2019-01-12T22:58:17.692Z,16.80
2019-01-12T23:00:58.353Z,18.43
2019-01-12T23:03:27.148Z,23.43
2019-01-12T23:05:55.948Z,22.00
2019-01-12T23:08:24.854Z,17.93
2019-01-12T23:10:53.657Z,23.33
2019-01-12T23:13:22.420Z,21.00
2019-01-12T23:15:51.290Z,24.53
2019-01-12T23:18:19.999Z,21.53
2019-01-12T23:20:48.758Z,22.23
2019-01-12T23:23:17.550Z,20.23
2019-01-12T23:25:47.284Z,20.87
2019-01-12T23:28:16.153Z,21.27
2019-01-12T23:30:44.919Z,22.23
2019-01-12T23:33:13.788Z,18.73
2019-01-12T23:35:42.542Z,24.83
2019-01-12T23:38:11.419Z,24.13
2019-01-12T23:40:40.144Z,22.07
2019-01-12T23:43:09.020Z,22.40
2019-01-12T23:45:37.777Z,21.13
2019-01-12T23:48:07.152Z,21.43
2019-01-12T23:50:35.910Z,16.67
2019-01-12T23:53:04.782Z,22.67
2019-01-12T23:55:33.549Z,22.13
2019-01-12T23:58:02.269Z,20.67
